Time;durP1;ratioP1;P1;durP2;ratioP2;P2;SDS_P1;SDS_P2;PMS_P1;PMS_P2;Temp;Humidity;BMP_temperature;BMP_pressure;BME280_temperature;BME280_humidity;BME280_pressure;Samples;Min_cycle;Max_cycle;Signal;HPM_P1;HPM_P2
2021/04/19 00:00:24;;;;;;;10.20;8.50;;;;;;;7.41;73.73;96966.38;4971547;28;20787;-66
2021/04/19 00:02:50;;;;;;;11.83;8.87;;;;;;;7.31;74.29;96967.78;4971510;28;20192;-66
2021/04/19 00:05:18;;;;;;;11.53;9.07;;;;;;;7.28;74.84;96965.59;4971205;28;20185;-65
2021/04/19 00:07:43;;;;;;;17.53;9.67;;;;;;;7.35;74.38;96966.41;4955240;28;20209;-66
2021/04/19 00:10:10;;;;;;;14.87;10.00;;;;;;;7.25;75.06;96965.97;4971442;28;20239;-66
2021/04/19 00:12:36;;;;;;;13.60;9.47;;;;;;;7.23;75.03;96963.59;4975668;28;20199;-65
2021/04/19 00:15:05;;;;;;;13.67;9.27;;;;;;;7.16;75.69;96965.38;4975778;28;20204;-66
2021/04/19 00:17:32;;;;;;;11.47;9.07;;;;;;;7.29;75.09;96962.00;4975381;28;20271;-66
2021/04/19 00:19:57;;;;;;;12.67;9.30;;;;;;;7.13;76.04;96963.19;4975894;28;20688;-66
2021/04/19 00:22:23;;;;;;;13.73;9.80;;;;;;;7.07;76.09;96961.38;4974650;28;20181;-66
2021/04/19 00:24:48;;;;;;;12.47;9.17;;;;;;;6.98;76.53;96960.75;4976069;28;20283;-67
2021/04/19 00:27:13;;;;;;;17.30;10.10;;;;;;;7.03;76.34;96954.94;4974948;28;20180;-66
2021/04/19 00:29:39;;;;;;;13.00;9.53;;;;;;;6.92;77.09;96961.56;4975777;28;20553;-65
2021/04/19 00:32:05;;;;;;;11.73;9.37;;;;;;;6.95;76.89;96957.78;4958545;28;20204;-67
2021/04/19 00:34:30;;;;;;;12.07;9.40;;;;;;;6.99;76.46;96951.94;4957580;28;20584;-66
2021/04/19 00:36:55;;;;;;;14.57;9.97;;;;;;;6.87;76.99;96952.72;4975534;28;20616;-66
2021/04/19 00:39:21;;;;;;;14.63;9.83;;;;;;;6.88;77.09;96938.72;4975117;28;20185;-66
2021/04/19 00:41:46;;;;;;;15.53;10.03;;;;;;;6.94;76.75;96943.94;4975161;28;20184;-66
2021/04/19 00:44:13;;;;;;;11.67;9.93;;;;;;;6.78;77.43;96944.31;4975024;28;20634;-66
2021/04/19 00:46:39;;;;;;;12.67;9.80;;;;;;;6.75;77.42;96949.91;4975488;28;20189;-66
2021/04/19 00:49:04;;;;;;;12.47;9.20;;;;;;;6.75;77.35;96949.09;4957966;28;20205;-66
2021/04/19 00:51:30;;;;;;;14.20;9.80;;;;;;;6.69;77.80;96942.88;4957373;28;20180;-66
2021/04/19 00:53:55;;;;;;;13.23;9.37;;;;;;;6.62;78.45;96942.09;4975218;28;20665;-68
2021/04/19 00:56:22;;;;;;;15.33;10.27;;;;;;;6.76;77.87;96943.72;4974586;28;20307;-66
2021/04/19 00:58:48;;;;;;;14.17;10.40;;;;;;;6.66;77.92;96943.28;4974912;28;20215;-66
2021/04/19 01:01:14;;;;;;;13.57;10.37;;;;;;;6.76;77.94;96935.91;4974146;28;20650;-66
2021/04/19 01:03:41;;;;;;;13.27;10.10;;;;;;;6.68;78.01;96936.91;4974764;28;20188;-66
2021/04/19 01:06:06;;;;;;;17.13;10.00;;;;;;;6.72;77.83;96933.88;4975097;28;20181;-68
2021/04/19 01:08:33;;;;;;;11.77;9.43;;;;;;;6.67;77.89;96934.50;4974219;28;20191;-67
2021/04/19 01:10:58;;;;;;;13.27;9.93;;;;;;;6.54;78.62;96937.84;4974421;28;20231;-66
2021/04/19 01:13:24;;;;;;;11.70;10.43;;;;;;;6.56;78.77;96937.66;4974465;28;20588;-66
2021/04/19 01:15:49;;;;;;;14.07;9.80;;;;;;;6.53;79.06;96933.66;4974668;28;20308;-66
2021/04/19 01:18:15;;;;;;;14.90;9.73;;;;;;;6.67;78.36;96935.28;4974169;28;20279;-66
2021/04/19 01:20:48;;;;;;;13.07;10.13;;;;;;;6.64;78.89;96940.06;4975135;28;20196;-67
2021/04/19 01:23:15;;;;;;;15.10;9.60;;;;;;;6.69;78.59;96935.06;4956613;28;20637;-67
2021/04/19 01:25:41;;;;;;;14.17;10.10;;;;;;;6.76;78.24;96938.50;4974707;28;20260;-67
2021/04/19 01:28:07;;;;;;;16.27;10.70;;;;;;;6.91;77.81;96941.72;4957003;28;20289;-68
2021/04/19 01:30:36;;;;;;;14.80;10.20;;;;;;;6.74;78.03;96937.91;4973910;28;20189;-67
2021/04/19 01:33:03;;;;;;;14.63;10.40;;;;;;;6.77;78.24;96934.09;4974117;28;20215;-67
2021/04/19 01:35:29;;;;;;;17.27;10.50;;;;;;;6.76;78.33;96937.69;4974020;28;20223;-67
2021/04/19 01:37:55;;;;;;;11.57;8.77;;;;;;;6.79;78.10;96929.50;4974022;28;20558;-67
2021/04/19 01:40:20;;;;;;;15.47;10.37;;;;;;;6.87;77.72;96927.50;4973205;28;20196;-67
2021/04/19 01:42:46;;;;;;;12.67;9.43;;;;;;;6.83;78.08;96936.72;4974239;28;20187;-66
2021/04/19 01:45:14;;;;;;;11.10;9.37;;;;;;;6.85;77.85;96924.28;4973437;28;20551;-67
2021/04/19 01:47:39;;;;;;;12.37;9.43;;;;;;;6.92;77.50;96929.50;4973922;28;20615;-66
2021/04/19 01:50:18;;;;;;;14.30;9.57;;;;;;;7.03;77.60;96928.88;4974073;28;20185;-66
2021/04/19 01:52:43;;;;;;;14.70;9.90;;;;;;;6.90;78.35;96921.91;4974211;28;20189;-66
2021/04/19 01:55:16;;;;;;;14.13;9.23;;;;;;;6.83;78.35;96922.88;4973082;28;20568;-67
2021/04/19 01:57:45;;;;;;;15.63;9.60;;;;;;;6.93;77.90;96923.28;4974072;28;20607;-65
2021/04/19 02:00:11;;;;;;;15.77;9.90;;;;;;;6.95;77.90;96916.06;4973260;28;20271;-67
2021/04/19 02:02:49;;;;;;;14.20;9.20;;;;;;;6.98;77.92;96919.06;4973825;28;20185;-65
2021/04/19 02:05:36;;;;;;;18.57;10.03;;;;;;;6.98;78.18;96916.47;4972685;28;20181;-66
2021/04/19 02:08:09;;;;;;;13.97;9.57;;;;;;;7.06;77.70;96923.28;4956757;28;20212;-66
2021/04/19 02:10:49;;;;;;;17.33;9.60;;;;;;;7.01;77.71;96917.88;4973523;28;20181;-65
2021/04/19 02:13:28;;;;;;;12.83;9.60;;;;;;;7.04;77.94;96914.88;4958221;28;20177;-66
2021/04/19 02:16:13;;;;;;;13.17;10.10;;;;;;;7.10;77.49;96920.09;4973733;28;20211;-66
2021/04/19 02:18:47;;;;;;;13.53;10.07;;;;;;;7.14;77.41;96917.06;4973930;28;20268;-65
2021/04/19 02:21:25;;;;;;;13.50;9.80;;;;;;;7.17;77.72;96914.88;4958205;28;20179;-66
2021/04/19 02:23:58;;;;;;;12.70;9.37;;;;;;;7.16;77.65;96915.88;4974058;28;20192;-65
2021/04/19 02:26:32;;;;;;;13.97;10.03;;;;;;;7.09;77.96;96912.47;4973188;28;20589;-66
2021/04/19 02:29:09;;;;;;;13.80;10.10;;;;;;;7.19;77.94;96918.06;4974238;28;20267;-66
2021/04/19 02:31:39;;;;;;;13.70;10.40;;;;;;;7.15;78.18;96914.25;4973604;28;20176;-66
2021/04/19 02:34:09;;;;;;;13.57;10.63;;;;;;;7.14;78.17;96907.44;4973392;28;20598;-66
2021/04/19 02:36:36;;;;;;;14.87;10.67;;;;;;;7.10;78.08;96912.25;4972365;28;20263;-66
2021/04/19 02:39:04;;;;;;;13.00;10.40;;;;;;;7.16;78.08;96918.47;4973224;28;20195;-66
2021/04/19 02:41:30;;;;;;;11.83;10.13;;;;;;;7.18;77.77;96906.06;4972646;28;20667;-66
2021/04/19 02:43:58;;;;;;;14.20;10.27;;;;;;;7.17;78.07;96906.25;4973543;28;20251;-66
2021/04/19 02:46:27;;;;;;;12.37;10.03;;;;;;;7.14;78.04;96909.25;4955233;28;20192;-66
2021/04/19 02:48:53;;;;;;;12.93;10.37;;;;;;;7.11;78.09;96902.66;4972680;28;20196;-66
2021/04/19 02:51:19;;;;;;;15.10;10.80;;;;;;;7.10;78.34;96901.84;4972299;28;20196;-66
2021/04/19 02:53:45;;;;;;;13.17;10.00;;;;;;;7.08;78.04;96901.22;4972861;28;20664;-67
2021/04/19 02:56:11;;;;;;;13.20;10.43;;;;;;;7.09;78.05;96904.63;4972258;28;20235;-67
2021/04/19 02:58:45;;;;;;;13.70;10.03;;;;;;;7.17;77.40;96907.06;4972563;28;20185;-66
2021/04/19 03:01:23;;;;;;;13.17;10.70;;;;;;;6.99;77.71;96902.44;4954891;28;20650;-68
2021/04/19 03:03:49;;;;;;;16.10;10.93;;;;;;;7.04;78.03;96904.44;4945238;28;20660;-67
2021/04/19 03:06:17;;;;;;;13.93;11.27;;;;;;;7.06;77.83;96898.03;4955025;28;20204;-66
2021/04/19 03:08:48;;;;;;;14.57;10.73;;;;;;;7.01;78.07;96899.66;4973238;28;20201;-66
2021/04/19 03:11:30;;;;;;;13.53;10.97;;;;;;;6.98;78.36;96903.44;4956691;28;20181;-67
2021/04/19 03:13:59;;;;;;;15.07;11.67;;;;;;;6.99;78.43;96899.84;4972707;28;20251;-66
2021/04/19 03:16:27;;;;;;;14.70;10.80;;;;;;;6.99;78.58;96902.44;4971923;28;20554;-65
2021/04/19 03:18:53;;;;;;;16.33;11.83;;;;;;;7.06;78.56;96899.84;4972564;28;20180;-66
2021/04/19 03:21:21;;;;;;;15.00;11.90;;;;;;;7.07;78.67;96901.44;4971605;28;20246;-66
2021/04/19 03:23:53;;;;;;;16.17;12.43;;;;;;;7.05;78.93;96896.44;4972564;28;20183;-67
2021/04/19 03:26:21;;;;;;;14.97;11.83;;;;;;;7.09;79.18;96900.22;4957120;28;20196;-67
2021/04/19 03:28:49;;;;;;;17.63;12.20;;;;;;;7.16;78.78;96897.63;4955253;28;20177;-67
2021/04/19 03:31:21;;;;;;;15.83;12.17;;;;;;;7.15;78.69;96890.81;4972038;28;20708;-67
2021/04/19 03:33:49;;;;;;;18.17;12.40;;;;;;;7.18;79.04;96893.03;4972332;28;20219;-67
2021/04/19 03:36:16;;;;;;;17.30;12.43;;;;;;;7.14;78.82;96888.38;4964396;28;20243;-66
2021/04/19 03:38:44;;;;;;;19.77;13.30;;;;;;;7.15;79.15;96896.00;4972293;28;20267;-66
2021/04/19 03:41:11;;;;;;;18.40;13.43;;;;;;;7.25;78.93;96891.19;4954351;28;20196;-67
2021/04/19 03:43:38;;;;;;;17.87;13.37;;;;;;;7.30;78.44;96891.38;4972362;28;20191;-66
2021/04/19 03:46:05;;;;;;;19.90;14.40;;;;;;;7.21;78.66;96886.59;4973713;28;20553;-66
2021/04/19 03:48:34;;;;;;;16.37;13.87;;;;;;;7.24;78.98;96884.41;4975707;28;20749;-66
2021/04/19 03:51:03;;;;;;;18.83;14.27;;;;;;;7.31;78.87;96889.56;4976049;28;20225;-66
2021/04/19 03:53:30;;;;;;;19.47;14.73;;;;;;;7.35;78.70;96888.19;4975205;28;20185;-66
2021/04/19 03:55:59;;;;;;;21.80;14.80;;;;;;;7.39;78.92;96897.19;4975767;28;20235;-67
2021/04/19 03:58:27;;;;;;;22.87;14.87;;;;;;;7.50;78.45;96893.97;4973373;28;20227;-66
2021/04/19 04:00:55;;;;;;;20.07;13.43;;;;;;;7.37;78.99;96896.59;4975650;28;20180;-66
2021/04/19 04:03:21;;;;;;;14.47;11.03;;;;;;;7.04;78.42;96894.00;4975205;28;20709;-66
2021/04/19 04:05:48;;;;;;;14.77;11.40;;;;;;;7.24;78.10;96899.22;4975982;28;20264;-66
2021/04/19 04:08:15;;;;;;;15.07;11.00;;;;;;;7.13;78.46;96892.81;4943443;28;20212;-66
2021/04/19 04:10:42;;;;;;;13.57;11.20;;;;;;;7.07;78.79;96888.41;4976004;28;20204;-66
2021/04/19 04:13:07;;;;;;;13.30;10.67;;;;;;;7.03;78.80;96895.00;4975935;28;20619;-66
2021/04/19 04:15:33;;;;;;;15.40;11.10;;;;;;;7.12;78.86;96888.63;4958084;28;20215;-66
2021/04/19 04:17:58;;;;;;;16.47;11.67;;;;;;;7.06;79.12;96886.81;4975391;28;20215;-66
2021/04/19 04:20:24;;;;;;;14.07;11.20;;;;;;;7.09;79.53;96881.19;4957945;28;20544;-66
2021/04/19 04:22:49;;;;;;;17.23;11.67;;;;;;;7.02;79.85;96890.84;4975674;28;20220;-65
2021/04/19 04:25:16;;;;;;;17.03;12.07;;;;;;;7.04;80.05;96887.00;4975007;28;20272;-66
2021/04/19 04:27:42;;;;;;;15.53;11.37;;;;;;;6.98;79.99;96882.59;4975618;28;20185;-66
2021/04/19 04:30:08;;;;;;;15.83;11.03;;;;;;;6.98;79.87;96887.81;4975762;28;20251;-65
2021/04/19 04:32:33;;;;;;;16.33;11.37;;;;;;;7.03;79.95;96888.00;4957678;28;20188;-66
2021/04/19 04:34:59;;;;;;;14.37;10.77;;;;;;;6.94;80.30;96886.63;4975660;28;20213;-65
2021/04/19 04:37:25;;;;;;;14.87;11.40;;;;;;;6.87;80.16;96888.41;4957496;28;20760;-66
2021/04/19 04:39:50;;;;;;;16.63;11.23;;;;;;;6.74;80.91;96890.22;4975574;28;20246;-67
2021/04/19 04:42:18;;;;;;;15.50;11.57;;;;;;;6.89;80.42;96890.81;4974608;28;20185;-66
2021/04/19 04:44:46;;;;;;;15.53;10.90;;;;;;;6.89;79.81;96894.22;4975260;28;20264;-66
2021/04/19 04:47:24;;;;;;;16.40;10.70;;;;;;;6.98;79.48;96898.22;4974878;28;20227;-67
2021/04/19 04:50:01;;;;;;;15.47;11.93;;;;;;;7.06;78.82;96889.41;4975025;28;20196;-66
2021/04/19 04:52:30;;;;;;;14.30;10.70;;;;;;;6.86;79.41;96889.41;4974991;28;20280;-66
2021/04/19 04:54:59;;;;;;;14.27;11.27;;;;;;;6.82;79.73;96890.81;4974222;28;20240;-66
2021/04/19 04:57:28;;;;;;;14.27;10.63;;;;;;;6.79;79.80;96896.44;4974105;28;20224;-66
2021/04/19 04:59:55;;;;;;;15.10;10.07;;;;;;;6.90;79.01;96901.06;4975105;28;20673;-65
2021/04/19 05:02:23;;;;;;;14.27;10.47;;;;;;;6.83;79.50;96894.22;4973969;28;20661;-66
2021/04/19 05:04:53;;;;;;;13.40;10.27;;;;;;;6.70;79.75;96897.63;4957798;28;20662;-67
2021/04/19 05:07:20;;;;;;;12.90;9.93;;;;;;;6.74;78.36;96900.66;4957101;28;20192;-66
2021/04/19 05:09:47;;;;;;;13.07;10.27;;;;;;;6.75;78.62;96903.03;4975008;28;20196;-66
2021/04/19 05:12:14;;;;;;;13.20;9.97;;;;;;;6.72;78.52;96900.84;4958554;28;20661;-68
2021/04/19 05:14:40;;;;;;;12.93;9.90;;;;;;;6.62;78.49;96903.03;4975187;28;20322;-66
2021/04/19 05:17:07;;;;;;;14.33;10.10;;;;;;;6.40;80.87;96904.19;4974480;28;20552;-67
2021/04/19 05:19:33;;;;;;;14.37;10.57;;;;;;;6.68;80.37;96904.84;4973665;28;20177;-67
2021/04/19 05:21:59;;;;;;;13.60;9.90;;;;;;;6.50;79.29;96905.41;4974287;28;21029;-65
2021/04/19 05:24:25;;;;;;;12.67;9.93;;;;;;;6.67;79.48;96911.84;4941036;28;20207;-65
2021/04/19 05:26:50;;;;;;;13.23;10.43;;;;;;;6.83;79.42;96904.66;4973718;28;20646;-66
2021/04/19 05:29:16;;;;;;;16.30;10.40;;;;;;;6.74;80.71;96903.25;4973443;28;20228;-66
2021/04/19 05:31:42;;;;;;;13.67;11.00;;;;;;;6.71;82.36;96912.25;4974521;28;20176;-65
2021/04/19 05:34:07;;;;;;;16.47;11.40;;;;;;;6.58;82.87;96910.41;4957054;28;20200;-65
2021/04/19 05:36:33;;;;;;;15.73;10.90;;;;;;;6.64;83.21;96909.63;4955778;28;20196;-65
2021/04/19 05:38:59;;;;;;;14.57;11.07;;;;;;;6.71;83.53;96904.44;4974499;28;20199;-66
2021/04/19 05:41:25;;;;;;;19.67;11.50;;;;;;;6.76;84.07;96907.25;4973063;28;20637;-66
2021/04/19 05:43:51;;;;;;;12.50;9.77;;;;;;;6.72;83.93;96906.03;4974494;28;20243;-66
2021/04/19 05:46:18;;;;;;;15.53;10.63;;;;;;;6.82;82.98;96900.44;4973183;28;20267;-66
2021/04/19 05:48:44;;;;;;;14.43;11.13;;;;;;;6.77;84.66;96911.44;4973855;28;20185;-65
2021/04/19 05:51:22;;;;;;;14.37;11.30;;;;;;;6.67;85.81;96905.84;4973803;28;20200;-67
2021/04/19 05:53:54;;;;;;;16.77;12.33;;;;;;;6.64;87.95;96912.22;4973736;28;20582;-67
2021/04/19 05:56:35;;;;;;;16.50;12.07;;;;;;;6.63;89.41;96922.88;4972014;28;20235;-66
2021/04/19 05:59:14;;;;;;;14.83;12.57;;;;;;;6.60;90.05;96925.84;4973918;28;20199;-66
2021/04/19 06:01:42;;;;;;;15.87;12.10;;;;;;;6.60;89.51;96924.06;4973553;28;20641;-66
2021/04/19 06:04:34;;;;;;;19.83;13.17;;;;;;;6.68;89.99;96934.28;4973475;28;20189;-66
2021/04/19 06:07:10;;;;;;;16.67;12.40;;;;;;;6.61;90.58;96927.47;4973659;28;20259;-65
2021/04/19 06:10:08;;;;;;;15.87;12.13;;;;;;;6.42;91.68;96928.22;4972686;28;20164;-67
2021/04/19 06:12:35;;;;;;;15.10;12.97;;;;;;;6.42;92.65;96928.22;4973125;28;20211;-66
2021/04/19 06:15:09;;;;;;;16.17;12.73;;;;;;;6.25;94.01;96925.16;4954336;28;20208;-67
2021/04/19 06:17:35;;;;;;;17.00;12.87;;;;;;;6.23;95.68;96922.78;4971681;28;20192;-66
2021/04/19 06:20:01;;;;;;;16.60;13.23;;;;;;;6.24;95.78;96934.00;4971659;28;20518;-67
2021/04/19 06:22:27;;;;;;;16.07;12.17;;;;;;;6.36;95.08;96932.41;4955620;28;20191;-67
2021/04/19 06:24:52;;;;;;;17.03;13.57;;;;;;;6.37;96.03;96928.81;4969813;28;20197;-67
2021/04/19 06:27:27;;;;;;;15.73;13.57;;;;;;;6.32;95.67;96933.00;4972876;28;20188;-67
2021/04/19 06:29:53;;;;;;;16.33;13.03;;;;;;;6.24;95.89;96934.00;4964746;28;20176;-66
2021/04/19 06:32:22;;;;;;;14.83;12.67;;;;;;;6.33;94.77;96930.19;4972198;28;20189;-67
2021/04/19 06:34:51;;;;;;;18.30;12.93;;;;;;;6.27;94.86;96933.59;4972780;28;20204;-66
2021/04/19 06:37:18;;;;;;;19.63;13.90;;;;;;;6.18;96.35;96938.19;4972374;28;20223;-66
2021/04/19 06:39:44;;;;;;;18.93;12.93;;;;;;;6.31;95.09;96940.00;4955678;28;20275;-66
2021/04/19 06:42:10;;;;;;;19.63;13.23;;;;;;;6.17;94.48;96944.38;4939683;28;20275;-66
2021/04/19 06:44:37;;;;;;;17.27;14.17;;;;;;;6.10;93.77;96946.13;4939104;28;20188;-67
2021/04/19 06:47:02;;;;;;;17.23;13.57;;;;;;;5.95;96.55;96945.47;4955477;28;20646;-67
2021/04/19 06:49:28;;;;;;;19.17;14.47;;;;;;;5.97;97.19;96943.47;4953359;28;20188;-67
2021/04/19 06:51:57;;;;;;;20.43;14.33;;;;;;;5.98;97.95;96946.88;4955074;28;20193;-67
2021/04/19 06:54:26;;;;;;;17.80;14.27;;;;;;;6.00;97.24;96944.91;4970902;28;20312;-67
2021/04/19 06:56:55;;;;;;;19.77;14.60;;;;;;;5.91;98.52;96946.06;4954386;28;20235;-67
2021/04/19 06:59:23;;;;;;;17.40;13.53;;;;;;;6.08;96.93;96953.31;4971650;28;20638;-67
2021/04/19 07:01:53;;;;;;;18.70;14.17;;;;;;;6.02;96.11;96954.09;4971805;28;20296;-66
2021/04/19 07:04:24;;;;;;;19.17;13.87;;;;;;;6.07;96.54;96950.94;4971996;28;20509;-67
2021/04/19 07:06:50;;;;;;;18.47;14.53;;;;;;;6.16;97.19;96953.16;4971876;28;20191;-66
2021/04/19 07:09:26;;;;;;;18.00;13.40;;;;;;;5.92;97.37;96953.66;4971255;28;20184;-67
2021/04/19 07:11:59;;;;;;;17.30;13.37;;;;;;;6.04;97.66;96952.13;4971987;28;20646;-67
2021/04/19 07:14:30;;;;;;;16.77;12.87;;;;;;;6.00;97.30;96953.50;4971082;28;20205;-66
2021/04/19 07:16:56;;;;;;;18.30;13.30;;;;;;;6.17;97.11;96946.16;4971740;28;20223;-66
2021/04/19 07:19:22;;;;;;;18.73;13.97;;;;;;;6.16;96.58;96955.78;4971181;28;20176;-66
2021/04/19 07:21:47;;;;;;;15.27;12.57;;;;;;;6.12;96.99;96951.16;4953852;28;20197;-66
2021/04/19 07:24:13;;;;;;;19.40;13.47;;;;;;;6.22;94.81;96944.59;4971443;28;20714;-67
2021/04/19 07:26:39;;;;;;;17.70;13.67;;;;;;;6.16;96.40;96947.97;4954328;28;20194;-66
2021/04/19 07:29:05;;;;;;;16.57;13.63;;;;;;;6.23;95.18;96955.81;4972128;28;20239;-66
2021/04/19 07:31:53;;;;;;;17.93;13.93;;;;;;;6.24;96.30;96939.97;4971026;28;20200;-66
2021/04/19 07:34:30;;;;;;;21.60;15.37;;;;;;;6.31;96.66;96947.00;4964774;28;20197;-66
2021/04/19 07:37:01;;;;;;;21.60;14.43;;;;;;;6.31;96.51;96940.00;4972111;28;20243;-66
2021/04/19 07:39:30;;;;;;;19.37;14.80;;;;;;;6.44;95.56;96942.66;4971515;28;20216;-66
2021/04/19 07:41:57;;;;;;;20.20;14.67;;;;;;;6.51;97.50;96942.66;4971713;28;20185;-65
2021/04/19 07:44:48;;;;;;;16.47;13.47;;;;;;;6.52;95.97;96939.84;4970989;28;20207;-66
2021/04/19 07:47:18;;;;;;;17.43;12.53;;;;;;;6.62;96.07;96940.28;4970949;28;20187;-66
2021/04/19 07:50:08;;;;;;;16.93;13.07;;;;;;;6.71;96.69;96935.69;4972454;28;20267;-65
2021/04/19 07:52:55;;;;;;;17.03;13.00;;;;;;;6.78;95.58;96941.72;4971501;28;20418;-65
2021/04/19 07:55:39;;;;;;;19.60;13.13;;;;;;;6.80;95.44;96937.09;4969546;28;20303;-65
2021/04/19 07:58:06;;;;;;;19.07;14.07;;;;;;;6.95;95.30;96934.31;4971462;28;20200;-65
2021/04/19 08:00:34;;;;;;;18.23;14.03;;;;;;;7.15;95.51;96936.91;4970806;28;20960;-65
2021/04/19 08:03:20;;;;;;;18.57;14.80;;;;;;;6.99;95.48;96931.09;4971281;28;20247;-66
2021/04/19 08:05:52;;;;;;;18.27;13.80;;;;;;;7.08;94.86;96935.09;4966614;28;20658;-66
2021/04/19 08:08:36;;;;;;;18.97;14.70;;;;;;;7.08;95.93;96937.72;4970512;28;20200;-66
2021/04/19 08:11:09;;;;;;;18.73;14.13;;;;;;;7.17;95.36;96929.69;4971525;28;20280;-66
2021/04/19 08:13:34;;;;;;;22.93;14.73;;;;;;;7.33;94.30;96937.09;4970362;28;20183;-66
2021/04/19 08:16:26;;;;;;;18.53;13.33;;;;;;;7.34;94.69;96939.53;4971190;28;20212;-66
2021/04/19 08:19:04;;;;;;;16.73;13.37;;;;;;;7.58;93.54;96938.06;4968053;28;20199;-66
2021/04/19 08:21:32;;;;;;;19.20;14.07;;;;;;;7.71;93.29;96939.84;4966229;28;20565;-67
2021/04/19 08:24:14;;;;;;;18.60;13.27;;;;;;;7.87;92.41;96945.44;4971613;28;20173;-67
2021/04/19 08:26:54;;;;;;;19.10;14.13;;;;;;;7.94;92.70;96941.00;4970634;28;20663;-66
2021/04/19 08:29:52;;;;;;;16.80;13.17;;;;;;;7.85;92.59;96937.03;4970635;28;20239;-67
2021/04/19 08:32:22;;;;;;;15.40;13.23;;;;;;;7.99;93.57;96939.56;4931150;28;20208;-67
2021/04/19 08:34:49;;;;;;;17.23;13.23;;;;;;;8.02;93.92;96939.97;4957575;28;20212;-67
2021/04/19 08:37:23;;;;;;;16.50;13.27;;;;;;;8.17;93.00;96942.31;4954486;28;20192;-67
2021/04/19 08:39:49;;;;;;;15.67;13.47;;;;;;;8.15;93.13;96941.72;4974247;28;20224;-67
2021/04/19 08:42:15;;;;;;;18.90;13.40;;;;;;;8.08;94.21;96948.78;4974393;28;20354;-66
2021/04/19 08:44:42;;;;;;;15.80;13.23;;;;;;;8.21;93.26;96946.13;4973710;28;20272;-66
2021/04/19 08:47:07;;;;;;;20.20;14.30;;;;;;;8.16;92.29;96946.75;4957788;28;20327;-66
2021/04/19 08:49:34;;;;;;;17.50;13.73;;;;;;;8.07;93.08;96948.00;4974184;28;20896;-66
2021/04/19 08:52:00;;;;;;;18.87;13.23;;;;;;;8.04;93.32;96947.59;4956939;28;20646;-66
2021/04/19 08:54:26;;;;;;;18.80;13.30;;;;;;;8.11;93.09;96954.41;4973712;28;20224;-66
2021/04/19 08:56:52;;;;;;;17.73;13.57;;;;;;;7.95;94.65;96957.47;4973782;28;20235;-66
2021/04/19 08:59:20;;;;;;;16.80;13.73;;;;;;;8.05;93.07;96954.41;4973569;28;20196;-66
2021/04/19 09:01:47;;;;;;;17.83;14.03;;;;;;;7.89;93.58;96955.66;4974579;28;20284;-66
2021/04/19 09:04:13;;;;;;;18.50;15.03;;;;;;;7.71;94.12;96961.53;4957097;28;20189;-66
2021/04/19 09:06:49;;;;;;;20.80;13.90;;;;;;;7.67;94.92;96951.72;4974577;28;20195;-67
2021/04/19 09:09:35;;;;;;;17.83;14.13;;;;;;;7.67;95.64;96956.94;4957565;28;20234;-67
2021/04/19 09:12:10;;;;;;;19.80;14.97;;;;;;;7.65;95.18;96951.91;4943655;28;20204;-66
2021/04/19 09:14:44;;;;;;;20.40;14.47;;;;;;;7.72;95.80;96951.91;4973161;28;20266;-66
2021/04/19 09:17:21;;;;;;;21.03;14.83;;;;;;;7.80;96.31;96956.91;4956968;28;20649;-65
2021/04/19 09:19:55;;;;;;;17.27;14.10;;;;;;;7.80;95.43;96962.13;4974238;28;20296;-66
2021/04/19 09:22:21;;;;;;;19.40;14.50;;;;;;;7.93;95.39;96960.28;4968512;28;20189;-66
2021/04/19 09:25:15;;;;;;;19.60;13.90;;;;;;;7.80;94.28;96955.06;4974264;28;20189;-67
2021/04/19 09:27:40;;;;;;;22.60;14.53;;;;;;;7.78;94.41;96962.31;4973836;28;20260;-67
2021/04/19 09:30:37;;;;;;;16.97;14.27;;;;;;;7.90;93.63;96972.94;4974144;28;20718;-67
2021/04/19 09:33:02;;;;;;;20.83;15.23;;;;;;;7.92;94.43;96966.50;4971848;28;20231;-66
2021/04/19 09:35:41;;;;;;;19.80;14.30;;;;;;;7.88;94.03;96962.69;4973651;28;20291;-67
2021/04/19 09:38:14;;;;;;;18.83;13.73;;;;;;;8.00;93.10;96972.50;4974089;28;20192;-67
2021/04/19 09:40:48;;;;;;;18.13;13.97;;;;;;;7.83;94.45;96965.13;4955551;28;20188;-67
2021/04/19 09:43:29;;;;;;;18.60;14.17;;;;;;;7.99;94.28;96961.25;4973108;28;20220;-67
2021/04/19 09:45:56;;;;;;;17.07;13.90;;;;;;;7.88;95.15;96959.28;4956239;28;20189;-67
2021/04/19 09:48:25;;;;;;;22.33;15.10;;;;;;;8.07;94.04;96960.25;4972782;28;20637;-66
2021/04/19 09:51:02;;;;;;;20.37;14.60;;;;;;;8.05;93.94;96967.47;4973652;28;20644;-65
2021/04/19 09:53:32;;;;;;;21.83;15.30;;;;;;;8.01;94.52;96966.28;4971346;28;20188;-66
2021/04/19 09:55:58;;;;;;;18.80;15.03;;;;;;;8.03;93.76;96959.81;4955878;28;20584;-66
2021/04/19 09:58:24;;;;;;;20.03;14.63;;;;;;;8.04;93.57;96960.63;4972171;28;20177;-66
2021/04/19 10:01:00;;;;;;;17.30;14.27;;;;;;;7.99;93.54;96960.44;4973149;28;20188;-66
2021/04/19 10:03:26;;;;;;;19.93;15.33;;;;;;;8.00;93.63;96970.69;4955247;28;20231;-66
2021/04/19 10:05:53;;;;;;;24.47;16.57;;;;;;;8.20;92.87;96963.59;4973866;28;20203;-66
2021/04/19 10:08:21;;;;;;;23.13;16.00;;;;;;;8.10;93.63;96962.41;4972381;28;20625;-66
2021/04/19 10:10:52;;;;;;;23.10;16.13;;;;;;;8.21;93.14;96961.78;4955405;28;20189;-66
2021/04/19 10:13:37;;;;;;;24.27;16.70;;;;;;;8.21;93.09;96962.59;4955545;28;20185;-66
2021/04/19 10:16:14;;;;;;;22.50;16.33;;;;;;;8.00;94.71;96956.84;4972678;28;20219;-65
2021/04/19 10:18:47;;;;;;;23.03;16.47;;;;;;;8.23;95.02;96957.16;4954893;28;20877;-66
2021/04/19 10:21:29;;;;;;;21.17;15.80;;;;;;;8.29;95.84;96961.56;4972927;28;20543;-66
2021/04/19 10:23:56;;;;;;;20.07;16.70;;;;;;;8.49;95.44;96959.69;4972858;28;20176;-66
2021/04/19 10:26:39;;;;;;;19.03;15.93;;;;;;;8.55;93.16;96955.44;4972407;28;20674;-66
2021/04/19 10:29:13;;;;;;;21.57;16.13;;;;;;;8.64;92.05;96957.56;4972519;28;20172;-66
2021/04/19 10:31:49;;;;;;;20.93;16.20;;;;;;;8.72;91.47;96954.72;4971915;28;20261;-66
2021/04/19 10:34:16;;;;;;;20.73;15.50;;;;;;;8.82;91.59;96959.47;4973020;28;20203;-66
2021/04/19 10:36:44;;;;;;;21.83;15.17;;;;;;;8.80;90.89;96953.69;4954141;28;20231;-66
2021/04/19 10:39:12;;;;;;;18.40;14.27;;;;;;;8.69;90.74;96952.53;4955663;28;20196;-65
2021/04/19 10:41:39;;;;;;;22.20;15.73;;;;;;;8.77;91.31;96951.47;4954546;28;20208;-66
2021/04/19 10:44:05;;;;;;;19.33;15.00;;;;;;;8.79;91.62;96953.88;4972770;28;20189;-66
2021/04/19 10:46:37;;;;;;;24.57;15.67;;;;;;;8.91;91.20;96949.59;4971686;28;20227;-66
2021/04/19 10:49:04;;;;;;;20.37;15.77;;;;;;;8.77;90.01;96954.09;4964176;28;20184;-66
2021/04/19 10:51:34;;;;;;;22.40;15.20;;;;;;;8.77;90.55;96946.25;4971500;28;20197;-67
2021/04/19 10:54:03;;;;;;;19.97;15.50;;;;;;;8.90;90.48;96943.56;4972546;28;20177;-67
2021/04/19 10:56:29;;;;;;;22.27;14.73;;;;;;;9.00;89.78;96946.50;4970858;28;20267;-67
2021/04/19 10:58:58;;;;;;;20.80;14.80;;;;;;;8.90;90.25;96935.72;4972174;28;20184;-67
2021/04/19 11:01:35;;;;;;;23.37;16.83;;;;;;;8.92;92.55;96936.28;4954806;28;20235;-67
2021/04/19 11:04:03;;;;;;;22.77;16.17;;;;;;;8.78;92.60;96937.41;4972455;28;20695;-67
2021/04/19 11:06:28;;;;;;;22.73;17.10;;;;;;;8.89;92.37;96941.94;4971972;28;20272;-67
2021/04/19 11:08:58;;;;;;;20.03;15.37;;;;;;;8.85;92.88;96938.16;4972394;28;20649;-67
2021/04/19 11:11:37;;;;;;;19.80;16.10;;;;;;;8.85;92.52;96951.25;4950728;28;20285;-68
2021/04/19 11:14:37;;;;;;;23.93;16.10;;;;;;;8.83;92.56;96940.19;4972142;28;20181;-67
2021/04/19 11:17:05;;;;;;;19.90;16.20;;;;;;;8.95;92.53;96940.31;4952675;28;20669;-67
2021/04/19 11:19:36;;;;;;;21.17;16.97;;;;;;;8.91;93.21;96932.09;4971322;28;20216;-67
2021/04/19 11:22:20;;;;;;;21.13;16.00;;;;;;;8.94;93.40;96938.69;4971893;28;20185;-67
2021/04/19 11:24:46;;;;;;;22.67;16.43;;;;;;;9.00;92.48;96928.19;4971552;28;20541;-67
2021/04/19 11:27:12;;;;;;;21.20;16.47;;;;;;;8.89;93.52;96931.50;4972341;28;20200;-66
2021/04/19 11:29:39;;;;;;;20.13;15.93;;;;;;;8.96;93.52;96924.41;4971006;28;20181;-65
2021/04/19 11:32:25;;;;;;;20.20;16.27;;;;;;;9.05;93.33;96932.78;4954479;28;20282;-65
2021/04/19 11:34:51;;;;;;;19.00;15.53;;;;;;;8.94;92.56;96929.03;4971828;28;20280;-66
2021/04/19 11:37:36;;;;;;;18.60;15.13;;;;;;;9.05;90.61;96930.97;4972121;28;20273;-65
2021/04/19 11:40:07;;;;;;;19.03;14.67;;;;;;;9.09;90.53;96929.53;4971859;28;20172;-66